Time;durP1;ratioP1;P1;durP2;ratioP2;P2;SDS_P1;SDS_P2;PMS_P1;PMS_P2;Temp;Humidity;BMP_temperature;BMP_pressure;BME280_temperature;BME280_humidity;BME280_pressure;Samples;Min_cycle;Max_cycle;Signal;HPM_P1;HPM_P2
2022/01/05 00:00:46;;;;;;;0.75;0.65;;;5.70;99.90;;;;;;5119450;27;20036;-82
2022/01/05 00:03:16;;;;;;;0.25;0.25;;;6.20;99.90;;;;;;5119099;27;20043;-82
2022/01/05 00:06:02;;;;;;;2.08;0.88;;;5.70;99.90;;;;;;5141862;27;20078;-82
2022/01/05 00:08:31;;;;;;;1.13;0.88;;;5.70;99.90;;;;;;5123351;27;20047;-82
2022/01/05 00:11:00;;;;;;;5.57;2.10;;;5.60;99.90;;;;;;5124086;27;22285;-82
2022/01/05 00:13:26;;;;;;;2.40;1.13;;;5.70;99.90;;;;;;5125051;27;20058;-81
2022/01/05 00:15:55;;;;;;;3.75;1.38;;;5.60;99.90;;;;;;5120923;27;20054;-82
2022/01/05 00:18:34;;;;;;;1.65;0.73;;;5.60;99.90;;;;;;5122497;27;20059;-82
2022/01/05 00:21:05;;;;;;;5.10;0.95;;;5.60;99.90;;;;;;5119100;27;20495;-82
2022/01/05 00:23:44;;;;;;;3.10;1.08;;;5.80;99.90;;;;;;5125873;27;20096;-82
2022/01/05 00:26:13;;;;;;;5.40;1.05;;;5.80;99.90;;;;;;5121026;27;20043;-81
2022/01/05 00:28:43;;;;;;;1.58;1.00;;;4.90;99.90;;;;;;5125693;27;20053;-81
2022/01/05 00:31:15;;;;;;;2.88;1.10;;;5.50;99.90;;;;;;5122251;27;20049;-81
2022/01/05 00:33:43;;;;;;;2.40;0.85;;;5.50;99.90;;;;;;5122396;27;20071;-81
2022/01/05 00:36:10;;;;;;;2.67;0.85;;;5.50;99.90;;;;;;5128698;27;20124;-81
2022/01/05 00:38:39;;;;;;;9.32;1.67;;;5.40;99.90;;;;;;5117483;27;20519;-82
2022/01/05 00:41:06;;;;;;;2.08;1.05;;;5.50;99.90;;;;;;5119952;27;20568;-81
2022/01/05 00:43:40;;;;;;;2.80;1.55;;;5.50;99.90;;;;;;5123673;27;21006;-82
2022/01/05 00:46:07;;;;;;;3.08;1.08;;;5.20;99.90;;;;;;5121975;27;20397;-82
2022/01/05 00:48:40;;;;;;;4.68;1.35;;;5.40;99.90;;;;;;5142516;27;20050;-81
2022/01/05 00:51:09;;;;;;;1.60;0.70;;;5.40;99.90;;;;;;5122777;27;20027;-80
2022/01/05 00:53:36;;;;;;;0.80;0.70;;;5.40;99.90;;;;;;5123377;27;20066;-82
2022/01/05 00:56:22;;;;;;;1.83;0.60;;;5.50;99.90;;;;;;5125002;27;20054;-82
2022/01/05 00:58:53;;;;;;;1.70;1.08;;;5.40;99.90;;;;;;5124566;27;20046;-81
2022/01/05 01:01:36;;;;;;;7.45;0.90;;;5.40;99.90;;;;;;5117535;27;20100;-81
2022/01/05 01:04:03;;;;;;;1.42;1.30;;;4.90;99.90;;;;;;5140905;27;20031;-81
2022/01/05 01:06:31;;;;;;;2.63;0.95;;;5.30;99.90;;;;;;5118408;27;20040;-81
2022/01/05 01:09:00;;;;;;;5.15;1.60;;;5.30;99.90;;;;;;5120819;27;20039;-82
2022/01/05 01:11:26;;;;;;;3.03;1.17;;;5.30;99.90;;;;;;5110780;27;20040;-82
2022/01/05 01:13:58;;;;;;;1.27;0.80;;;5.80;99.90;;;;;;5136910;27;20043;-81
2022/01/05 01:16:30;;;;;;;1.88;1.02;;;4.90;99.90;;;;;;5121541;27;20526;-81
2022/01/05 01:19:15;;;;;;;;;;;5.20;99.90;;;;;;5119485;27;20062;-81
2022/01/05 01:21:44;;;;;;;5.25;1.42;;;5.20;99.90;;;;;;5138890;27;19919;-82
2022/01/05 01:24:13;;;;;;;3.90;0.90;;;5.10;99.90;;;;;;5116536;27;20056;-82
2022/01/05 01:26:42;;;;;;;1.83;1.55;;;5.20;99.90;;;;;;5139778;27;20072;-81
2022/01/05 01:29:14;;;;;;;1.23;0.85;;;5.10;99.90;;;;;;5143194;27;20038;-82
2022/01/05 01:31:49;;;;;;;2.13;0.80;;;4.40;99.90;;;;;;5122263;27;20047;-81
2022/01/05 01:34:18;;;;;;;3.10;1.05;;;4.60;99.90;;;;;;5119073;27;20039;-81
2022/01/05 01:36:49;;;;;;;1.65;1.25;;;5.10;99.90;;;;;;5144261;27;20054;-82
2022/01/05 01:39:21;;;;;;;1.40;0.90;;;5.10;99.90;;;;;;5118757;27;20563;-81
2022/01/05 01:41:55;;;;;;;4.53;1.77;;;5.10;99.90;;;;;;5119788;27;20069;-81
2022/01/05 01:44:24;;;;;;;5.18;0.98;;;5.00;99.90;;;;;;5140892;27;20075;-81
2022/01/05 01:46:53;;;;;;;1.75;1.05;;;5.20;99.90;;;;;;5126639;27;20046;-82
2022/01/05 01:49:23;;;;;;;3.05;1.10;;;5.00;99.90;;;;;;5123422;27;20035;-81
2022/01/05 01:51:54;;;;;;;1.33;1.15;;;5.00;99.90;;;;;;5135108;27;20039;-81
2022/01/05 01:54:35;;;;;;;;;;;;;;;;;;;;;
2022/01/05 01:57:14;;;;;;;5.05;1.10;;;5.90;99.90;;;;;;5144982;27;44309;-81
2022/01/05 01:59:45;;;;;;;2.13;1.23;;;4.90;99.90;;;;;;5143389;27;20043;-81
2022/01/05 02:02:12;;;;;;;5.00;0.98;;;4.90;99.90;;;;;;5127314;27;20077;-81
2022/01/05 02:04:54;;;;;;;1.60;0.93;;;4.90;99.90;;;;;;5115008;27;20554;-82
2022/01/05 02:07:23;;;;;;;;;;;4.90;99.90;;;;;;5136985;27;20032;-82
2022/01/05 02:09:56;;;;;;;3.10;0.80;;;4.80;99.90;;;;;;5136640;27;20446;-81
2022/01/05 02:12:37;;;;;;;5.65;1.23;;;4.40;99.90;;;;;;5125788;27;20119;-81
2022/01/05 02:15:12;;;;;;;1.35;0.88;;;4.90;99.90;;;;;;5125063;27;20119;-81
2022/01/05 02:18:08;;;;;;;1.67;0.82;;;5.00;99.90;;;;;;5120556;27;20051;-81
2022/01/05 02:20:37;;;;;;;0.98;0.57;;;5.10;99.90;;;;;;5113479;27;20081;-81
2022/01/05 02:23:12;;;;;;;1.75;1.20;;;5.10;99.90;;;;;;5136178;27;20383;-81
2022/01/05 02:25:41;;;;;;;0.80;0.70;;;5.10;99.90;;;;;;5126033;27;20047;-82
2022/01/05 02:28:25;;;;;;;3.47;2.22;;;5.10;99.90;;;;;;5116677;27;20046;-81
2022/01/05 02:31:01;;;;;;;6.00;1.30;;;5.10;99.90;;;;;;5136063;27;20039;-81
2022/01/05 02:33:40;;;;;;;2.88;1.00;;;5.10;99.90;;;;;;5119438;27;20038;-81
2022/01/05 02:36:16;;;;;;;8.77;1.30;;;5.10;99.90;;;;;;5118978;27;20535;-80
2022/01/05 02:38:48;;;;;;;0.93;0.80;;;5.00;99.90;;;;;;5126239;27;20051;-80
2022/01/05 02:41:14;;;;;;;2.08;1.15;;;5.00;99.90;;;;;;5124797;27;20928;-80
2022/01/05 02:43:45;;;;;;;3.22;1.27;;;5.00;99.90;;;;;;5117398;27;20051;-80
2022/01/05 02:46:22;;;;;;;2.03;1.33;;;4.90;99.90;;;;;;5143256;27;20035;-81
2022/01/05 02:48:54;;;;;;;5.70;0.98;;;5.10;99.90;;;;;;5118010;27;20039;-81
2022/01/05 02:51:22;;;;;;;2.90;1.35;;;4.80;99.90;;;;;;5125409;27;20040;-81
2022/01/05 02:53:50;;;;;;;2.45;1.13;;;4.20;99.90;;;;;;5141486;27;21917;-79
2022/01/05 02:56:18;;;;;;;4.32;1.60;;;4.80;99.90;;;;;;5129017;27;20043;-80
2022/01/05 02:58:47;;;;;;;3.53;1.60;;;3.90;99.90;;;;;;5124065;27;20179;-80
2022/01/05 03:01:17;;;;;;;3.08;0.73;;;5.00;99.90;;;;;;5120322;27;20145;-80
2022/01/05 03:03:46;;;;;;;3.42;0.98;;;4.70;99.90;;;;;;5136960;27;20150;-80
2022/01/05 03:06:14;;;;;;;1.75;1.30;;;4.70;99.90;;;;;;5119264;27;20513;-80
2022/01/05 03:09:01;;;;;;;4.75;1.48;;;4.60;99.90;;;;;;5125126;27;20043;-81
2022/01/05 03:11:34;;;;;;;2.13;1.30;;;4.60;99.90;;;;;;5127157;27;20067;-80
2022/01/05 03:14:08;;;;;;;4.68;1.45;;;3.90;99.90;;;;;;5114611;27;20078;-80
2022/01/05 03:16:40;;;;;;;4.95;1.83;;;4.60;99.90;;;;;;5127331;27;20044;-81
2022/01/05 03:19:15;;;;;;;2.88;0.90;;;4.50;99.90;;;;;;5119233;27;20064;-82
2022/01/05 03:21:46;;;;;;;2.03;1.10;;;4.50;99.90;;;;;;5124755;27;20035;-81
2022/01/05 03:24:15;;;;;;;1.70;1.27;;;4.60;99.90;;;;;;5120332;27;20043;-80
2022/01/05 03:26:41;;;;;;;5.75;1.13;;;4.50;99.90;;;;;;5115647;27;20044;-80
2022/01/05 03:29:13;;;;;;;1.48;0.68;;;4.70;99.90;;;;;;5119443;27;20035;-80
2022/01/05 03:31:42;;;;;;;4.38;1.10;;;4.50;99.90;;;;;;5121526;27;20040;-80
2022/01/05 03:34:17;;;;;;;0.82;0.80;;;4.40;99.90;;;;;;5116070;27;20051;-80
2022/01/05 03:36:52;;;;;;;3.17;1.48;;;4.30;99.90;;;;;;5120560;27;20039;-81
2022/01/05 03:39:28;;;;;;;1.98;1.05;;;3.90;99.90;;;;;;5118437;27;20044;-80
2022/01/05 03:41:57;;;;;;;3.67;0.90;;;4.40;99.90;;;;;;5117463;27;20056;-81
2022/01/05 03:44:28;;;;;;;3.97;1.00;;;4.50;99.90;;;;;;5118107;27;20082;-81
2022/01/05 03:46:56;;;;;;;3.25;1.00;;;4.50;99.90;;;;;;5115878;27;20526;-81
2022/01/05 03:49:23;;;;;;;2.45;1.90;;;4.80;99.90;;;;;;5119416;27;20126;-81
2022/01/05 03:51:52;;;;;;;8.30;1.15;;;4.40;99.90;;;;;;5117867;27;20046;-81
2022/01/05 03:54:18;;;;;;;1.60;0.80;;;5.30;99.90;;;;;;5122303;27;20047;-81
2022/01/05 03:56:44;;;;;;;3.42;1.20;;;4.60;99.90;;;;;;5113512;27;20036;-80
2022/01/05 03:59:17;;;;;;;5.15;1.00;;;4.40;99.90;;;;;;5126681;27;20047;-80
2022/01/05 04:01:49;;;;;;;1.70;1.08;;;4.40;99.90;;;;;;5123248;27;21083;-81
2022/01/05 04:04:17;;;;;;;6.88;1.42;;;4.60;99.90;;;;;;5124096;27;20073;-80
2022/01/05 04:06:43;;;;;;;1.02;0.85;;;4.50;99.90;;;;;;5125636;27;20039;-81
2022/01/05 04:09:12;;;;;;;2.72;1.10;;;5.10;99.90;;;;;;5127414;27;20047;-81
2022/01/05 04:11:38;;;;;;;3.15;0.90;;;4.30;99.90;;;;;;5126367;27;20039;-81
2022/01/05 04:14:06;;;;;;;1.50;1.00;;;4.40;99.90;;;;;;5127085;27;20675;-81
2022/01/05 04:16:38;;;;;;;5.10;0.80;;;4.30;99.90;;;;;;5118865;27;20083;-81
2022/01/05 04:19:18;;;;;;;1.77;0.88;;;4.30;99.90;;;;;;5120314;27;20131;-81
2022/01/05 04:21:50;;;;;;;2.95;0.75;;;4.30;99.90;;;;;;5120661;27;20166;-81
2022/01/05 04:24:25;;;;;;;3.75;0.77;;;4.40;99.90;;;;;;5146512;27;20070;-80
2022/01/05 04:26:56;;;;;;;1.25;0.88;;;4.20;99.90;;;;;;5143259;27;20531;-81
2022/01/05 04:29:36;;;;;;;0.70;0.65;;;4.30;99.90;;;;;;5121270;27;20555;-80
2022/01/05 04:32:02;;;;;;;2.90;1.20;;;4.40;99.90;;;;;;5124381;27;20142;-80
2022/01/05 04:34:29;;;;;;;2.72;0.90;;;4.30;99.90;;;;;;5144936;27;20035;-81
2022/01/05 04:36:55;;;;;;;1.60;0.85;;;4.20;99.90;;;;;;5123075;27;20039;-81
2022/01/05 04:39:26;;;;;;;2.28;1.33;;;4.20;99.90;;;;;;5123267;27;20063;-81
2022/01/05 04:41:59;;;;;;;2.17;1.65;;;4.20;99.90;;;;;;5139019;27;20047;-81
2022/01/05 04:44:25;;;;;;;1.50;0.88;;;4.40;99.90;;;;;;5145732;27;20034;-81
2022/01/05 04:46:52;;;;;;;1.13;0.93;;;4.80;99.90;;;;;;5122269;27;20035;-80
2022/01/05 04:49:26;;;;;;;6.05;1.50;;;4.10;99.90;;;;;;5142445;27;20042;-80
2022/01/05 04:51:55;;;;;;;5.55;0.98;;;4.20;99.90;;;;;;5138750;27;20583;-81
2022/01/05 04:54:24;;;;;;;5.57;0.88;;;4.10;99.90;;;;;;5133384;27;20044;-81
2022/01/05 04:56:51;;;;;;;4.82;1.92;;;4.40;99.90;;;;;;5130369;27;20052;-80
2022/01/05 04:59:19;;;;;;;8.55;2.53;;;4.10;99.90;;;;;;5136760;27;22210;-80
2022/01/05 05:01:47;;;;;;;0.73;0.63;;;4.10;99.90;;;;;;5155228;27;20040;-80
2022/01/05 05:04:16;;;;;;;1.50;1.13;;;4.10;99.90;;;;;;5149569;27;20035;-81
2022/01/05 05:06:47;;;;;;;1.38;0.70;;;4.00;99.90;;;;;;5133858;27;20961;-80
2022/01/05 05:09:22;;;;;;;3.83;1.10;;;4.00;99.90;;;;;;5135715;27;20058;-81
2022/01/05 05:11:50;;;;;;;3.17;1.55;;;4.00;99.90;;;;;;5130977;27;20039;-80
2022/01/05 05:14:21;;;;;;;3.05;1.38;;;4.00;99.90;;;;;;5124752;27;20122;-80
2022/01/05 05:16:53;;;;;;;2.88;1.20;;;4.00;99.90;;;;;;5126530;27;20039;-81
2022/01/05 05:19:32;;;;;;;2.25;0.95;;;3.50;99.90;;;;;;5131584;27;20057;-80
2022/01/05 05:21:58;;;;;;;2.30;1.38;;;3.80;99.90;;;;;;5120267;27;20047;-80
2022/01/05 05:24:27;;;;;;;2.80;1.02;;;4.00;99.90;;;;;;5146818;27;20047;-80
2022/01/05 05:26:53;;;;;;;2.80;0.73;;;3.80;99.90;;;;;;5120026;27;20129;-81
2022/01/05 05:36:22;;;;;;;3.83;1.48;;;4.20;99.90;;;;;;5115196;27;20047;-80
2022/01/05 05:39:03;;;;;;;5.10;0.60;;;4.40;99.90;;;;;;5118337;27;20732;-80
2022/01/05 05:42:00;;;;;;;3.30;1.58;;;3.90;99.90;;;;;;5123929;27;20055;-79
2022/01/05 05:44:53;;;;;;;1.33;0.80;;;4.00;99.90;;;;;;5115823;27;20051;-80
2022/01/05 05:47:51;;;;;;;3.33;0.80;;;4.20;99.90;;;;;;5132916;27;20047;-80
2022/01/05 05:50:34;;;;;;;1.02;0.80;;;3.90;99.90;;;;;;5137067;27;20579;-81
2022/01/05 05:53:34;;;;;;;0.77;0.70;;;3.90;99.90;;;;;;5116896;27;20155;-80
2022/01/05 05:56:46;;;;;;;0.98;0.60;;;4.40;99.90;;;;;;5131940;27;20035;-81
2022/01/05 05:59:52;;;;;;;1.05;0.85;;;4.30;99.90;;;;;;5119775;27;20130;-80
2022/01/05 06:05:45;;;;;;;2.53;0.60;;;4.10;99.90;;;;;;5102278;27;20044;-80
2022/01/05 06:08:43;;;;;;;5.38;1.23;;;4.20;99.90;;;;;;5092132;27;20056;-80
2022/01/05 06:11:19;;;;;;;1.88;0.63;;;4.30;99.90;;;;;;5096337;27;20055;-83
2022/01/05 06:14:20;;;;;;;3.13;0.95;;;4.10;99.90;;;;;;5095979;27;21026;-80
2022/01/05 06:17:21;;;;;;;5.43;1.42;;;3.80;99.90;;;;;;5091918;27;20105;-80
2022/01/05 06:20:25;;;;;;;;;;;;;;;;;;;;;
2022/01/05 06:23:32;;;;;;;2.35;1.13;;;3.80;99.90;;;;;;5091730;27;41091;-80
2022/01/05 06:26:20;;;;;;;1.85;1.05;;;3.50;99.90;;;;;;5074061;27;20049;-81
2022/01/05 06:32:34;;;;;;;4.28;1.30;;;3.80;99.90;;;;;;5098890;27;20039;-82
2022/01/05 06:35:23;;;;;;;5.13;1.67;;;4.00;99.90;;;;;;5087260;27;20075;-82
2022/01/05 06:39:05;;;;;;;5.97;1.40;;;3.90;99.90;;;;;;5099768;27;20097;-81
2022/01/05 06:41:52;;;;;;;3.17;1.77;;;4.30;99.90;;;;;;5100781;27;20040;-81
2022/01/05 06:45:07;;;;;;;2.25;1.17;;;3.90;99.90;;;;;;5089945;27;20101;-81
2022/01/05 06:48:35;;;;;;;;;;;;;;;;;;;;;
2022/01/05 06:51:14;;;;;;;5.38;1.58;;;3.40;99.90;;;;;;5086332;27;20052;-81
2022/01/05 06:53:46;;;;;;;2.88;1.35;;;4.00;99.90;;;;;;5094559;27;20560;-81
2022/01/05 06:56:33;;;;;;;2.85;1.83;;;3.80;99.90;;;;;;5094701;27;20045;-81
2022/01/05 06:59:16;;;;;;;6.93;1.15;;;4.20;99.90;;;;;;5098186;27;20047;-81
2022/01/05 07:08:48;;;;;;;;;;;;;;;;;;;;;
2022/01/05 07:11:52;;;;;;;1.17;0.95;;;3.70;99.90;;;;;;5110816;27;40156;-82
2022/01/05 07:14:58;;;;;;;1.50;1.00;;;4.80;99.90;;;;;;5111376;27;20130;-83
2022/01/05 07:18:08;;;;;;;1.70;0.85;;;3.70;99.90;;;;;;5111498;27;20548;-80
2022/01/05 07:21:06;;;;;;;0.75;0.50;;;3.70;99.90;;;;;;5116679;27;20108;-80
2022/01/05 07:23:53;;;;;;;0.73;0.70;;;3.70;99.90;;;;;;5127741;27;20120;-80
2022/01/05 07:26:57;;;;;;;2.15;1.65;;;3.70;99.90;;;;;;5121085;27;20044;-77
2022/01/05 07:36:01;;;;;;;2.13;1.17;;;4.10;99.90;;;;;;5110132;27;20102;-79
2022/01/05 07:42:32;;;;;;;0.82;0.80;;;3.60;99.90;;;;;;5117288;27;20062;-77
2022/01/05 07:45:43;;;;;;;1.17;1.05;;;4.10;99.90;;;;;;5112536;27;20048;-79
2022/01/05 07:48:20;;;;;;;2.90;1.05;;;3.60;99.90;;;;;;5114859;27;20105;-77
2022/01/05 07:51:32;;;;;;;2.72;1.15;;;3.60;99.90;;;;;;5110261;27;20102;-79
2022/01/05 07:54:36;;;;;;;3.60;1.55;;;3.60;99.90;;;;;;5101204;27;20130;-78
2022/01/05 07:57:18;;;;;;;;;;;;;;;;;;;;;
2022/01/05 08:03:19;;;;;;;5.07;1.70;;;3.20;99.90;;;;;;5122095;27;20055;-78
2022/01/05 08:09:29;;;;;;;1.92;1.20;;;3.90;99.90;;;;;;5137140;27;20697;-78
2022/01/05 08:12:13;;;;;;;1.35;1.25;;;3.90;99.90;;;;;;5122288;27;20575;-79
2022/01/05 08:15:04;;;;;;;2.80;1.20;;;3.90;99.90;;;;;;5125417;27;20115;-78
2022/01/05 08:17:45;;;;;;;3.25;0.85;;;4.70;99.90;;;;;;5120924;27;20093;-78
2022/01/05 08:20:17;;;;;;;0.73;0.70;;;3.80;99.90;;;;;;5121664;27;20043;-78
2022/01/05 08:22:45;;;;;;;2.30;0.73;;;3.40;99.90;;;;;;5121157;27;20035;-78
2022/01/05 08:25:24;;;;;;;1.13;0.95;;;4.00;99.90;;;;;;5123913;27;20043;-78
2022/01/05 08:27:53;;;;;;;5.10;1.60;;;3.60;99.90;;;;;;5118028;27;20057;-78
2022/01/05 08:30:23;;;;;;;4.75;1.42;;;4.20;99.90;;;;;;5144118;27;20527;-79
2022/01/05 08:32:59;;;;;;;2.83;1.30;;;4.10;99.90;;;;;;5121534;27;20629;-78
2022/01/05 08:35:26;;;;;;;7.78;1.30;;;4.30;99.90;;;;;;5120241;27;20294;-78
2022/01/05 08:37:53;;;;;;;1.13;0.80;;;4.70;99.90;;;;;;5119253;27;20054;-77
2022/01/05 08:40:26;;;;;;;1.52;0.85;;;4.40;99.90;;;;;;5118538;27;20065;-78
2022/01/05 08:43:16;;;;;;;2.80;1.42;;;4.40;99.90;;;;;;5116314;27;20047;-78
2022/01/05 08:45:45;;;;;;;1.55;0.95;;;4.40;99.90;;;;;;5118434;27;20035;-78
2022/01/05 08:48:15;;;;;;;5.00;0.90;;;4.50;99.90;;;;;;5138376;27;20035;-78
2022/01/05 08:50:43;;;;;;;1.60;1.10;;;4.50;99.90;;;;;;5124402;27;20050;-78
2022/01/05 08:53:12;;;;;;;3.15;1.63;;;4.40;99.90;;;;;;5125299;27;20536;-79
2022/01/05 08:55:58;;;;;;;1.60;1.25;;;4.00;99.90;;;;;;5120063;27;20564;-78
2022/01/05 08:58:47;;;;;;;5.05;1.10;;;4.90;99.90;;;;;;5141029;27;20074;-78
2022/01/05 09:01:14;;;;;;;4.13;2.08;;;4.40;99.90;;;;;;5118044;27;20055;-78
2022/01/05 09:03:46;;;;;;;3.17;1.00;;;4.20;99.90;;;;;;5116679;27;20052;-79
2022/01/05 09:06:17;;;;;;;1.38;1.02;;;4.40;99.90;;;;;;5121836;27;20075;-79
2022/01/05 09:08:56;;;;;;;1.88;1.58;;;4.20;99.90;;;;;;5115923;27;20044;-79
2022/01/05 09:11:24;;;;;;;3.85;1.65;;;4.40;99.90;;;;;;5115361;27;20036;-78
2022/01/05 09:13:50;;;;;;;3.20;1.55;;;4.60;99.90;;;;;;5118332;27;20035;-79
2022/01/05 09:16:26;;;;;;;0.85;0.57;;;4.70;99.90;;;;;;5113297;27;20500;-79
2022/01/05 09:19:03;;;;;;;0.80;0.80;;;5.10;99.90;;;;;;5118765;27;20079;-79
2022/01/05 09:21:34;;;;;;;2.83;1.10;;;4.80;99.90;;;;;;5113493;27;20050;-79
2022/01/05 09:24:09;;;;;;;7.43;1.20;;;4.30;99.90;;;;;;5120417;27;20040;-78
2022/01/05 09:26:48;;;;;;;1.05;0.88;;;4.80;99.90;;;;;;5119700;27;20050;-79
2022/01/05 09:29:20;;;;;;;5.53;1.40;;;4.80;99.90;;;;;;5118013;27;20047;-79
2022/01/05 09:31:50;;;;;;;5.40;1.87;;;5.00;99.90;;;;;;5108736;27;20137;-78
2022/01/05 09:34:27;;;;;;;3.70;2.00;;;4.80;99.90;;;;;;5113244;27;20258;-79
2022/01/05 09:36:58;;;;;;;3.45;2.05;;;4.80;99.90;;;;;;5115945;27;20086;-78
2022/01/05 09:42:14;;;;;;;6.18;1.70;;;4.60;99.90;;;;;;5118160;27;20047;-78
2022/01/05 09:44:59;;;;;;;4.53;1.60;;;4.70;99.90;;;;;;5116986;27;20074;-78
2022/01/05 09:47:58;;;;;;;3.88;1.35;;;5.80;99.90;;;;;;5114493;27;20559;-78
2022/01/05 09:50:32;;;;;;;2.95;1.40;;;5.00;99.90;;;;;;5122298;27;20044;-79
2022/01/05 09:53:01;;;;;;;1.98;1.10;;;5.10;99.90;;;;;;5116154;27;20042;-79
2022/01/05 09:55:34;;;;;;;5.95;1.00;;;5.10;99.90;;;;;;5111927;27;20119;-79
2022/01/05 09:58:14;;;;;;;3.45;1.13;;;5.20;99.90;;;;;;5112926;27;20520;-79
2022/01/05 10:00:41;;;;;;;3.95;1.27;;;5.40;99.90;;;;;;5114390;27;20048;-78
2022/01/05 10:03:26;;;;;;;1.73;1.15;;;5.10;99.90;;;;;;5114486;27;20040;-79
2022/01/05 10:05:52;;;;;;;4.80;1.50;;;4.90;99.90;;;;;;5114174;27;20039;-79
2022/01/05 10:08:19;;;;;;;3.63;1.42;;;5.00;99.90;;;;;;5118161;27;20043;-78
2022/01/05 10:10:48;;;;;;;2.58;1.13;;;4.90;99.90;;;;;;5118058;27;20040;-78
2022/01/05 10:13:17;;;;;;;1.30;0.93;;;4.80;99.90;;;;;;5116304;27;20509;-78
2022/01/05 10:15:55;;;;;;;4.85;1.20;;;4.80;99.90;;;;;;5120109;27;20051;-78
2022/01/05 10:18:24;;;;;;;1.20;0.90;;;4.90;99.90;;;;;;5124901;27;20031;-78
2022/01/05 10:21:06;;;;;;;1.25;0.93;;;5.40;99.90;;;;;;5114394;27;20129;-78
2022/01/05 10:24:01;;;;;;;4.15;1.55;;;3.90;99.90;;;;;;5116260;27;20044;-78
2022/01/05 10:26:29;;;;;;;4.93;1.05;;;5.60;99.90;;;;;;5116007;27;20067;-78
2022/01/05 10:29:06;;;;;;;1.60;1.35;;;5.10;99.90;;;;;;5124683;27;20578;-78
2022/01/05 10:31:39;;;;;;;3.78;1.65;;;5.10;99.90;;;;;;5118316;27;20100;-78
2022/01/05 10:34:19;;;;;;;2.63;1.20;;;5.20;99.90;;;;;;5118135;27;20058;-78
2022/01/05 10:36:56;;;;;;;2.22;0.95;;;5.20;99.90;;;;;;5113913;27;20039;-78
2022/01/05 10:39:39;;;;;;;5.82;1.20;;;5.10;99.90;;;;;;5115650;27;20043;-77
2022/01/05 10:42:13;;;;;;;2.45;1.40;;;5.00;99.90;;;;;;5116671;27;20048;-78
2022/01/05 10:44:44;;;;;;;2.60;1.85;;;5.10;99.90;;;;;;5121233;27;20073;-78
2022/01/05 10:47:16;;;;;;;2.50;1.48;;;5.00;99.90;;;;;;5116502;27;20047;-79
2022/01/05 10:49:45;;;;;;;2.45;1.38;;;5.00;99.90;;;;;;5119481;27;20043;-79
2022/01/05 10:52:35;;;;;;;2.65;1.17;;;5.00;99.90;;;;;;5124416;27;20071;-79
2022/01/05 10:55:16;;;;;;;8.10;1.60;;;5.10;99.90;;;;;;5121497;27;20048;-79
2022/01/05 10:58:01;;;;;;;1.80;1.33;;;5.00;99.90;;;;;;5132944;27;20042;-78
2022/01/05 11:00:56;;;;;;;1.27;1.08;;;5.00;99.90;;;;;;5116457;27;20048;-80
2022/01/05 11:03:28;;;;;;;1.52;1.17;;;5.10;99.90;;;;;;5116818;27;20043;-78
2022/01/05 11:06:15;;;;;;;6.20;1.42;;;4.10;99.90;;;;;;5120461;27;20048;-79
2022/01/05 11:08:47;;;;;;;1.23;0.85;;;5.10;99.90;;;;;;5115581;27;20051;-78
2022/01/05 11:11:50;;;;;;;2.78;1.38;;;5.10;99.90;;;;;;5122699;27;20047;-79
2022/01/05 11:14:35;;;;;;;3.95;0.90;;;4.80;99.90;;;;;;5121925;27;20059;-79
2022/01/05 11:17:05;;;;;;;5.40;1.50;;;5.20;99.90;;;;;;5110907;27;20040;-80
2022/01/05 11:19:35;;;;;;;4.03;1.48;;;5.20;99.90;;;;;;5127553;27;20516;-80
2022/01/05 11:22:12;;;;;;;4.45;1.70;;;5.20;99.90;;;;;;5123033;27;20454;-78
2022/01/05 11:24:47;;;;;;;1.27;1.00;;;5.20;99.90;;;;;;5118211;27;20079;-78
2022/01/05 11:27:19;;;;;;;7.57;1.50;;;5.20;99.90;;;;;;5115293;27;20047;-78
2022/01/05 11:29:49;;;;;;;2.13;1.15;;;5.30;99.90;;;;;;5126278;27;20058;-79
2022/01/05 11:32:25;;;;;;;4.15;1.58;;;5.30;99.90;;;;;;5116758;27;20048;-78
2022/01/05 11:34:56;;;;;;;2.70;1.15;;;5.30;99.90;;;;;;5122945;27;20123;-78
2022/01/05 11:37:27;;;;;;;1.73;0.77;;;5.90;99.90;;;;;;5116540;27;20047;-79
2022/01/05 11:39:55;;;;;;;3.63;1.77;;;5.30;99.90;;;;;;5123211;27;20044;-78
2022/01/05 11:42:29;;;;;;;5.38;1.30;;;5.30;99.90;;;;;;5122828;27;20632;-79
2022/01/05 11:44:57;;;;;;;4.88;1.63;;;5.40;99.90;;;;;;5116336;27;20059;-78
2022/01/05 11:47:25;;;;;;;2.60;1.27;;;5.50;99.90;;;;;;5114596;27;20040;-79
2022/01/05 11:50:26;;;;;;;5.03;1.30;;;5.50;99.90;;;;;;5109269;27;20930;-78
2022/01/05 11:53:08;;;;;;;6.63;1.33;;;5.50;99.90;;;;;;5116806;27;20046;-79
2022/01/05 11:55:59;;;;;;;1.08;0.65;;;5.50;99.90;;;;;;5123554;27;20074;-79
2022/01/05 11:58:27;;;;;;;1.77;1.25;;;5.20;99.90;;;;;;5115460;27;20140;-79
2022/01/05 12:01:15;;;;;;;1.95;1.13;;;5.60;99.90;;;;;;5115804;27;20102;-79
2022/01/05 12:03:52;;;;;;;2.90;1.33;;;5.60;99.90;;;;;;5116824;27;20029;-79
2022/01/05 12:06:31;;;;;;;7.60;1.20;;;5.40;99.90;;;;;;5120865;27;20078;-82
2022/01/05 12:10:05;;;;;;;;;;;;;;;;;;;;;
2022/01/05 12:20:15;;;;;;;1.40;1.00;;;6.40;99.90;;;;;;5062101;28;20762;-82
2022/01/05 12:23:40;;;;;;;5.53;1.50;;;6.50;99.90;;;;;;5021938;28;20049;-82
2022/01/05 12:26:55;;;;;;;;;;;;;;;;;;;;;
2022/01/05 12:30:25;;;;;;;3.55;1.08;;;6.20;99.90;;;;;;4988346;28;41146;-79
2022/01/05 12:33:58;;;;;;;1.40;1.00;;;5.90;99.90;;;;;;4965928;28;20120;-79
2022/01/05 12:37:10;;;;;;;1.88;1.20;;;6.70;99.90;;;;;;4920784;28;20135;-78
2022/01/05 12:41:01;;;;;;;2.17;1.25;;;6.70;99.90;;;;;;4947654;28;20047;-79
2022/01/05 12:44:29;;;;;;;;;;;;;;;;;;;;;
2022/01/05 12:54:39;;;;;;;2.47;1.00;;;6.40;99.90;;;;;;4939877;28;20051;-79
2022/01/05 12:57:36;;;;;;;4.72;1.00;;;6.30;99.90;;;;;;4969462;28;20042;-80
2022/01/05 13:04:08;;;;;;;2.60;1.35;;;6.10;99.90;;;;;;5031306;28;20049;-79
2022/01/05 13:13:41;;;;;;;;;;;6.80;99.90;;;;;;5092541;27;20044;-79
2022/01/05 13:17:19;;;;;;;1.08;0.98;;;6.90;99.90;;;;;;5116810;27;19920;-78
2022/01/05 13:20:36;;;;;;;1.48;1.02;;;6.80;99.90;;;;;;5107620;27;20044;-80
2022/01/05 13:23:48;;;;;;;5.03;2.25;;;7.20;99.90;;;;;;5113086;27;20055;-80
2022/01/05 13:30:57;;;;;;;4.18;1.13;;;7.50;99.90;;;;;;5078030;27;20087;-81
2022/01/05 13:34:08;;;;;;;5.45;1.73;;;7.20;99.90;;;;;;4995431;28;20149;-80
2022/01/05 13:40:27;;;;;;;;;;;6.90;99.90;;;;;;4992076;28;20464;-79
2022/01/05 13:43:27;;;;;;;;;;;;;;;;;;;;;
2022/01/05 13:47:12;;;;;;;;;;;;;;;;;;;;;
2022/01/05 13:50:33;;;;;;;6.68;1.42;;;6.70;99.90;;;;;;4955688;28;41706;-79
2022/01/05 13:53:40;;;;;;;0.95;0.93;;;6.50;99.90;;;;;;4953851;28;20063;-79
2022/01/05 13:56:56;;;;;;;3.40;1.05;;;6.40;99.90;;;;;;4955757;28;20903;-79
2022/01/05 14:03:25;;;;;;;;;;;;;;;;;;;;;
2022/01/05 14:20:26;;;;;;;1.90;1.40;;;5.60;99.90;;;;;;5085057;27;20048;-80
2022/01/05 14:26:44;;;;;;;5.47;1.23;;;6.40;99.90;;;;;;5101871;27;20159;-80
2022/01/05 14:29:55;;;;;;;5.95;1.27;;;6.50;99.90;;;;;;5095197;27;20059;-80
2022/01/05 14:39:54;;;;;;;2.60;1.33;;;6.80;99.90;;;;;;5104092;27;20135;-79
2022/01/05 14:53:04;;;;;;;;;;;;;;;;;;;;;
2022/01/05 15:05:31;;;;;;;0.80;0.63;;;6.40;99.90;;;;;;5112489;27;20855;-80
2022/01/05 15:11:28;;;;;;;2.42;0.93;;;6.50;99.90;;;;;;5119559;27;20040;-80
2022/01/05 15:14:41;;;;;;;1.95;0.88;;;6.60;99.90;;;;;;5100636;27;20657;-79
2022/01/05 15:17:41;;;;;;;;;;;;;;;;;;;;;
2022/01/05 15:20:55;;;;;;;4.20;1.20;;;6.60;99.90;;;;;;5111711;27;20412;-79
2022/01/05 15:23:54;;;;;;;7.68;1.10;;;6.50;99.90;;;;;;5089361;27;20047;-79
2022/01/05 15:26:47;;;;;;;5.80;0.70;;;6.40;99.90;;;;;;5070080;28;20047;-79
2022/01/05 15:30:08;;;;;;;;;;;;;;;;;;;;;
2022/01/05 15:32:57;;;;;;;3.28;1.48;;;6.40;99.90;;;;;;5054471;28;38991;-80
2022/01/05 15:36:17;;;;;;;0.70;0.70;;;6.10;99.90;;;;;;4995773;28;20229;-80
2022/01/05 15:49:30;;;;;;;;;;;;;;;;;;;;;
2022/01/05 15:52:38;;;;;;;;;;;;;;;;;;;;;
2022/01/05 16:02:00;;;;;;;8.25;1.83;;;6.10;99.90;;;;;;5034394;28;22120;-79
2022/01/05 16:05:15;;;;;;;11.85;1.55;;;6.00;99.90;;;;;;5035518;28;20037;-80
2022/01/05 16:08:17;;;;;;;5.40;1.52;;;6.00;99.90;;;;;;5081304;28;20044;-80
2022/01/05 16:11:31;;;;;;;3.67;1.10;;;6.00;99.90;;;;;;5077791;28;20044;-79
2022/01/05 16:14:34;;;;;;;2.17;1.40;;;6.20;99.90;;;;;;5056725;28;20118;-80
2022/01/05 16:20:39;;;;;;;;;;;;;;;;;;;;;
2022/01/05 16:23:28;;;;;;;8.13;2.20;;;6.10;99.90;;;;;;5052831;28;38859;-79
2022/01/05 16:26:17;;;;;;;5.65;1.30;;;6.20;99.90;;;;;;5051633;28;20057;-78
2022/01/05 16:28:53;;;;;;;4.00;1.80;;;5.80;99.90;;;;;;5050857;28;20040;-78
2022/01/05 16:31:50;;;;;;;4.82;1.80;;;5.70;99.90;;;;;;5052511;28;20041;-78
2022/01/05 16:34:41;;;;;;;1.63;1.27;;;5.70;99.90;;;;;;5037259;28;20091;-78
2022/01/05 16:37:22;;;;;;;3.42;1.17;;;5.80;99.90;;;;;;5029911;28;20049;-78
2022/01/05 16:40:23;;;;;;;5.50;1.50;;;5.60;99.90;;;;;;5097046;28;20545;-78
2022/01/05 16:43:05;;;;;;;3.05;1.05;;;5.60;99.90;;;;;;5095338;27;20052;-78
2022/01/05 16:46:00;;;;;;;;;;;;;;;;;;;;;
2022/01/05 16:48:48;;;;;;;4.40;1.70;;;5.60;99.90;;;;;;5096839;28;44387;-78
2022/01/05 16:51:51;;;;;;;6.63;2.13;;;5.60;99.90;;;;;;5096661;28;20555;-79
2022/01/05 16:54:47;;;;;;;;;;;;;;;;;;;;;
2022/01/05 17:00:34;;;;;;;1.63;1.10;;;5.90;99.90;;;;;;5098264;27;20044;-78
2022/01/05 17:03:32;;;;;;;5.55;1.20;;;5.80;99.90;;;;;;5094273;28;20041;-78
2022/01/05 17:06:11;;;;;;;3.35;1.55;;;5.10;99.90;;;;;;5080336;28;20099;-78